createdAt,value
2023-03-03T00:03:12.519Z,5.50
2023-03-03T00:08:14.009Z,6.23
2023-03-03T00:13:15.408Z,5.47
2023-03-03T00:18:16.804Z,5.03
2023-03-03T00:23:18.245Z,5.43
2023-03-03T00:28:19.654Z,4.90
2023-03-03T00:33:21.061Z,5.20
2023-03-03T00:38:22.526Z,7.57
2023-03-03T00:43:23.932Z,6.37
2023-03-03T00:48:25.347Z,7.30
2023-03-03T00:53:26.757Z,9.33
2023-03-03T00:58:28.166Z,9.03
2023-03-03T01:03:29.580Z,10.20
2023-03-03T01:08:31.010Z,11.80
2023-03-03T01:13:32.421Z,11.60
2023-03-03T01:18:33.846Z,12.13
2023-03-03T01:23:35.270Z,12.57
2023-03-03T01:28:36.707Z,12.30
2023-03-03T01:33:38.111Z,11.30
2023-03-03T01:38:39.516Z,12.60
2023-03-03T01:43:40.914Z,12.80
2023-03-03T01:48:42.352Z,13.73
2023-03-03T01:53:43.758Z,13.67
2023-03-03T01:58:45.197Z,11.70
2023-03-03T02:03:46.617Z,13.17
2023-03-03T02:08:48.062Z,12.33
2023-03-03T02:13:49.521Z,12.40
2023-03-03T02:18:50.916Z,13.20
2023-03-03T02:23:52.383Z,13.40
2023-03-03T02:28:53.792Z,12.57
2023-03-03T02:33:55.226Z,13.17
2023-03-03T02:38:56.650Z,12.63
2023-03-03T02:43:58.078Z,13.27
2023-03-03T02:48:59.481Z,13.03
2023-03-03T02:54:00.869Z,13.23
2023-03-03T02:59:02.301Z,13.00
2023-03-03T03:04:03.751Z,13.97
2023-03-03T03:09:05.173Z,12.33
2023-03-03T03:14:06.607Z,12.93
2023-03-03T03:19:08.087Z,13.20
2023-03-03T03:24:09.501Z,12.87
2023-03-03T03:29:10.916Z,13.87
2023-03-03T03:34:12.318Z,14.00
2023-03-03T03:39:13.726Z,13.07
2023-03-03T03:44:15.137Z,13.50
2023-03-03T03:49:16.656Z,13.23
2023-03-03T03:54:18.055Z,14.00
2023-03-03T03:59:19.474Z,13.67
2023-03-03T04:04:20.886Z,12.97
2023-03-03T04:09:22.522Z,11.90
2023-03-03T04:14:24.058Z,12.80
2023-03-03T04:19:25.540Z,12.23
2023-03-03T04:24:26.944Z,13.07
2023-03-03T04:29:28.356Z,11.80
2023-03-03T04:34:29.768Z,14.00
2023-03-03T04:39:31.189Z,12.37
2023-03-03T04:44:32.581Z,11.70
2023-03-03T04:49:33.979Z,12.13
2023-03-03T04:54:35.380Z,11.40
2023-03-03T04:59:36.798Z,13.13
2023-03-03T05:04:38.290Z,11.80
2023-03-03T05:09:39.734Z,12.40
2023-03-03T05:14:41.133Z,12.80
2023-03-03T05:19:42.681Z,11.97
2023-03-03T05:24:44.100Z,13.00
2023-03-03T05:29:45.500Z,13.23
2023-03-03T05:34:46.924Z,13.30
2023-03-03T05:39:48.350Z,11.80
2023-03-03T05:44:49.754Z,11.53
2023-03-03T05:49:51.160Z,11.77
2023-03-03T05:54:52.584Z,12.47
2023-03-03T05:59:53.992Z,12.63
2023-03-03T06:04:55.384Z,11.70
2023-03-03T06:09:56.796Z,11.80
2023-03-03T06:14:58.202Z,12.10
2023-03-03T06:19:59.589Z,12.37
2023-03-03T06:25:00.976Z,12.20
2023-03-03T06:30:02.393Z,11.93
2023-03-03T06:35:03.857Z,11.10
2023-03-03T06:40:05.244Z,11.50
2023-03-03T06:45:06.656Z,10.77
2023-03-03T06:50:08.091Z,10.93
2023-03-03T06:55:09.502Z,11.03
2023-03-03T07:00:10.893Z,11.50
2023-03-03T07:05:12.292Z,11.63
2023-03-03T07:10:13.758Z,12.47
2023-03-03T07:15:15.177Z,10.60
2023-03-03T07:20:16.585Z,11.67
2023-03-03T07:25:17.993Z,11.03
2023-03-03T07:30:19.398Z,10.90
2023-03-03T07:35:20.825Z,11.93
2023-03-03T07:40:22.266Z,11.73
2023-03-03T07:45:23.759Z,11.67
2023-03-03T07:50:25.193Z,12.77
2023-03-03T07:55:26.613Z,11.73
2023-03-03T08:00:28.100Z,13.50
2023-03-03T08:05:29.580Z,11.13
2023-03-03T08:10:31.123Z,13.07
2023-03-03T08:15:32.664Z,12.40
2023-03-03T08:20:34.107Z,12.10
2023-03-03T08:25:35.511Z,11.00
2023-03-03T08:30:36.928Z,11.37
2023-03-03T08:35:38.415Z,14.07
2023-03-03T08:40:39.903Z,11.43
2023-03-03T08:45:41.320Z,12.37
2023-03-03T08:50:42.726Z,18.20
2023-03-03T08:55:44.256Z,11.63
2023-03-03T09:00:48.328Z,11.77
2023-03-03T09:05:50.686Z,13.50
2023-03-03T09:10:52.092Z,13.27
2023-03-03T09:15:53.503Z,14.37
2023-03-03T09:20:54.917Z,13.00
2023-03-03T09:25:56.313Z,12.73
2023-03-03T09:30:57.747Z,12.53
2023-03-03T09:35:59.201Z,12.30
2023-03-03T09:41:00.615Z,12.57
2023-03-03T09:46:02.030Z,15.13
2023-03-03T09:51:03.427Z,12.93
2023-03-03T09:56:04.849Z,12.60
2023-03-03T10:01:06.252Z,11.80
2023-03-03T10:06:07.641Z,11.73
2023-03-03T10:11:09.078Z,11.87
2023-03-03T10:16:10.529Z,13.13
2023-03-03T10:21:11.943Z,13.43
2023-03-03T10:26:13.362Z,12.60
2023-03-03T10:31:18.077Z,13.80
2023-03-03T10:36:20.402Z,11.80
2023-03-03T10:41:21.827Z,12.00
2023-03-03T10:46:23.247Z,13.60
2023-03-03T10:51:24.666Z,13.70
2023-03-03T10:56:26.087Z,11.03
2023-03-03T11:01:27.547Z,11.60
2023-03-03T11:06:29.058Z,12.00
2023-03-03T11:11:30.489Z,15.93
2023-03-03T11:16:31.989Z,11.50
2023-03-03T11:21:33.426Z,11.40
2023-03-03T11:26:34.906Z,9.73
2023-03-03T11:31:36.329Z,9.53
2023-03-03T11:36:37.731Z,10.10
2023-03-03T11:41:39.139Z,10.27
2023-03-03T11:46:40.560Z,11.03
2023-03-03T11:51:41.974Z,11.37
2023-03-03T11:56:43.401Z,10.50
2023-03-03T12:01:44.819Z,10.47
2023-03-03T12:06:46.267Z,11.23
2023-03-03T12:11:47.677Z,9.27
2023-03-03T12:16:49.082Z,9.60
2023-03-03T12:21:50.564Z,8.57
2023-03-03T12:26:52.023Z,10.07
2023-03-03T12:31:53.582Z,9.23
2023-03-03T12:36:55.102Z,10.00
2023-03-03T12:41:56.538Z,11.33
2023-03-03T12:46:58.021Z,11.20
2023-03-03T12:51:59.491Z,17.60
2023-03-03T12:57:00.957Z,9.80
2023-03-03T13:02:02.417Z,10.07
2023-03-03T13:07:03.891Z,11.70
2023-03-03T13:12:05.483Z,10.70
2023-03-03T13:17:07.111Z,11.43
2023-03-03T13:22:08.726Z,9.03
2023-03-03T13:27:10.366Z,9.77
2023-03-03T13:32:11.840Z,9.40
2023-03-03T13:37:13.270Z,8.70
2023-03-03T13:42:14.717Z,9.33
2023-03-03T13:47:16.208Z,10.13
2023-03-03T13:52:17.675Z,10.87
2023-03-03T13:57:19.123Z,10.97
2023-03-03T14:02:20.599Z,14.20
2023-03-03T14:07:22.107Z,10.43
2023-03-03T14:12:23.620Z,10.33
2023-03-03T14:17:25.096Z,16.00
2023-03-03T14:22:27.656Z,17.03
2023-03-03T14:27:29.147Z,9.20
2023-03-03T14:32:44.400Z,12.43
2023-03-03T14:37:46.451Z,9.80
2023-03-03T14:42:47.905Z,11.57
2023-03-03T14:47:49.364Z,12.83
2023-03-03T14:52:50.911Z,11.17
2023-03-03T14:57:52.383Z,10.50
2023-03-03T15:02:53.811Z,12.70
2023-03-03T15:07:55.295Z,9.47
2023-03-03T15:12:56.862Z,10.50
2023-03-03T15:17:58.371Z,10.77
2023-03-03T15:23:01.889Z,13.33
2023-03-03T15:28:03.344Z,9.23
2023-03-03T15:33:04.840Z,11.13
2023-03-03T15:38:06.312Z,9.60
2023-03-03T15:43:07.798Z,11.80
2023-03-03T15:48:09.245Z,10.40
2023-03-03T15:53:10.679Z,10.13
2023-03-03T15:58:12.125Z,8.90
2023-03-03T16:03:13.576Z,9.40
2023-03-03T16:08:15.014Z,9.03
2023-03-03T16:13:16.438Z,9.30
2023-03-03T16:18:17.831Z,9.47
2023-03-03T16:23:19.249Z,9.53
2023-03-03T16:28:20.685Z,10.60
2023-03-03T16:33:22.103Z,9.20
2023-03-03T16:38:23.523Z,10.90
2023-03-03T16:43:24.964Z,10.87
2023-03-03T16:48:26.373Z,10.80
2023-03-03T16:53:27.778Z,8.90
2023-03-03T16:58:29.191Z,9.83
2023-03-03T17:03:30.631Z,12.90
2023-03-03T17:08:32.048Z,14.90
2023-03-03T17:13:33.455Z,14.37
2023-03-03T17:18:36.137Z,15.37
2023-03-03T17:23:40.506Z,13.90
2023-03-03T17:28:42.073Z,12.37
2023-03-03T17:33:43.490Z,15.33
2023-03-03T17:38:44.912Z,16.90
2023-03-03T17:43:46.329Z,16.80
2023-03-03T17:48:47.726Z,18.40
2023-03-03T17:53:49.153Z,17.57
2023-03-03T17:58:50.668Z,18.13
2023-03-03T18:03:52.276Z,20.20
2023-03-03T18:09:01.985Z,21.40
2023-03-03T18:14:13.169Z,18.13
2023-03-03T18:19:14.577Z,19.87
2023-03-03T18:24:15.984Z,18.23
2023-03-03T18:29:17.411Z,19.03
2023-03-03T18:34:18.821Z,19.10
2023-03-03T18:39:20.410Z,20.07
2023-03-03T18:44:21.912Z,20.00
2023-03-03T18:49:23.378Z,21.07
2023-03-03T18:54:24.777Z,19.37
2023-03-03T18:59:26.185Z,22.43
2023-03-03T19:04:27.633Z,17.00
2023-03-03T19:09:29.092Z,20.60
2023-03-03T19:14:30.493Z,18.00
2023-03-03T19:19:31.909Z,20.23
2023-03-03T19:24:33.312Z,18.20
2023-03-03T19:29:34.743Z,16.30
2023-03-03T19:34:36.222Z,15.33
2023-03-03T19:39:37.719Z,15.20
2023-03-03T19:44:39.299Z,15.30
2023-03-03T19:49:40.747Z,16.17
2023-03-03T19:54:42.281Z,16.07
2023-03-03T19:59:44.821Z,14.07
2023-03-03T20:04:46.358Z,15.33
2023-03-03T20:09:47.930Z,16.83
2023-03-03T20:14:49.417Z,15.10
2023-03-03T20:19:51.025Z,13.40
2023-03-03T20:24:52.526Z,13.87
2023-03-03T20:29:53.921Z,15.17
2023-03-03T20:34:55.325Z,13.73
2023-03-03T20:39:56.743Z,14.23
2023-03-03T20:44:58.162Z,13.90
2023-03-03T20:49:59.613Z,13.63
2023-03-03T20:55:01.146Z,14.87
2023-03-03T21:00:02.568Z,13.83
2023-03-03T21:05:03.980Z,11.57
2023-03-03T21:10:05.402Z,13.43
2023-03-03T21:15:06.811Z,13.60
2023-03-03T21:20:08.210Z,13.93
2023-03-03T21:25:09.621Z,13.33
2023-03-03T21:30:11.032Z,13.87
2023-03-03T21:35:12.439Z,13.80
2023-03-03T21:40:13.844Z,13.93
2023-03-03T21:45:15.261Z,14.63
2023-03-03T21:50:16.668Z,18.50
2023-03-03T21:55:18.084Z,12.53
2023-03-03T22:00:19.512Z,14.57
2023-03-03T22:05:20.928Z,14.80
2023-03-03T22:10:22.344Z,16.07
2023-03-03T22:15:23.767Z,14.40
2023-03-03T22:20:25.165Z,12.00
2023-03-03T22:25:26.588Z,15.37
2023-03-03T22:30:27.997Z,15.53
2023-03-03T22:35:29.420Z,13.33
2023-03-03T22:40:30.870Z,16.33
2023-03-03T22:45:32.293Z,16.07
2023-03-03T22:50:33.701Z,12.93
2023-03-03T22:55:35.285Z,16.43
2023-03-03T23:00:36.727Z,14.00
2023-03-03T23:05:38.181Z,14.80
2023-03-03T23:10:39.640Z,11.33
2023-03-03T23:15:41.158Z,14.63
2023-03-03T23:20:42.601Z,11.33
2023-03-03T23:25:44.011Z,9.27
2023-03-03T23:30:45.442Z,16.17
2023-03-03T23:35:46.908Z,8.63
2023-03-03T23:40:48.348Z,8.93
2023-03-03T23:45:49.814Z,9.80
2023-03-03T23:50:51.247Z,10.33
2023-03-03T23:55:52.659Z,9.60
